sensor_id;sensor_type;location;lat;lon;timestamp;temperature;humidity
75931;DHT22;64609;47.052;15.462;2023-09-07T00:00:13;20.60;69.60
75931;DHT22;64609;47.052;15.462;2023-09-07T00:02:39;20.60;69.60
75931;DHT22;64609;47.052;15.462;2023-09-07T00:05:06;20.60;69.60
75931;DHT22;64609;47.052;15.462;2023-09-07T00:07:32;20.60;69.60
75931;DHT22;64609;47.052;15.462;2023-09-07T00:09:58;20.60;69.60
75931;DHT22;64609;47.052;15.462;2023-09-07T00:12:23;20.60;69.70
75931;DHT22;64609;47.052;15.462;2023-09-07T00:14:49;20.60;69.60
75931;DHT22;64609;47.052;15.462;2023-09-07T00:17:15;20.50;69.70
75931;DHT22;64609;47.052;15.462;2023-09-07T00:19:40;20.50;69.60
75931;DHT22;64609;47.052;15.462;2023-09-07T00:22:06;20.50;69.70
75931;DHT22;64609;47.052;15.462;2023-09-07T00:24:31;20.50;69.70
75931;DHT22;64609;47.052;15.462;2023-09-07T00:26:58;20.50;69.70
75931;DHT22;64609;47.052;15.462;2023-09-07T00:29:23;20.50;69.80
75931;DHT22;64609;47.052;15.462;2023-09-07T00:31:49;20.50;69.70
75931;DHT22;64609;47.052;15.462;2023-09-07T00:34:15;20.50;69.70
75931;DHT22;64609;47.052;15.462;2023-09-07T00:36:40;20.50;69.80
75931;DHT22;64609;47.052;15.462;2023-09-07T00:39:06;20.50;69.80
75931;DHT22;64609;47.052;15.462;2023-09-07T00:41:31;20.50;69.70
75931;DHT22;64609;47.052;15.462;2023-09-07T00:43:57;20.40;69.60
75931;DHT22;64609;47.052;15.462;2023-09-07T00:46:22;20.40;69.60
75931;DHT22;64609;47.052;15.462;2023-09-07T00:48:49;20.40;69.70
75931;DHT22;64609;47.052;15.462;2023-09-07T00:51:15;20.40;69.70
75931;DHT22;64609;47.052;15.462;2023-09-07T00:53:41;20.40;69.70
75931;DHT22;64609;47.052;15.462;2023-09-07T00:56:07;20.30;69.80
75931;DHT22;64609;47.052;15.462;2023-09-07T00:58:32;20.30;69.80
75931;DHT22;64609;47.052;15.462;2023-09-07T01:00:59;20.30;70.00
75931;DHT22;64609;47.052;15.462;2023-09-07T01:03:25;20.30;70.10
75931;DHT22;64609;47.052;15.462;2023-09-07T01:06:00;20.30;70.10
75931;DHT22;64609;47.052;15.462;2023-09-07T01:08:32;20.30;70.10
75931;DHT22;64609;47.052;15.462;2023-09-07T01:11:00;20.30;70.10
75931;DHT22;64609;47.052;15.462;2023-09-07T01:13:26;20.30;71.10
75931;DHT22;64609;47.052;15.462;2023-09-07T01:15:52;20.20;70.10
75931;DHT22;64609;47.052;15.462;2023-09-07T01:18:18;20.20;70.20
75931;DHT22;64609;47.052;15.462;2023-09-07T01:20:45;20.20;70.20
75931;DHT22;64609;47.052;15.462;2023-09-07T01:23:12;20.20;70.10
75931;DHT22;64609;47.052;15.462;2023-09-07T01:25:40;20.20;70.20
75931;DHT22;64609;47.052;15.462;2023-09-07T01:28:06;20.20;70.30
75931;DHT22;64609;47.052;15.462;2023-09-07T01:30:35;20.20;70.20
75931;DHT22;64609;47.052;15.462;2023-09-07T01:33:02;20.10;70.20
75931;DHT22;64609;47.052;15.462;2023-09-07T01:35:28;20.20;70.20
75931;DHT22;64609;47.052;15.462;2023-09-07T01:37:54;20.10;70.20
75931;DHT22;64609;47.052;15.462;2023-09-07T01:40:20;20.10;70.30
75931;DHT22;64609;47.052;15.462;2023-09-07T01:42:46;20.10;70.30
75931;DHT22;64609;47.052;15.462;2023-09-07T01:45:11;20.10;70.40
75931;DHT22;64609;47.052;15.462;2023-09-07T01:47:37;20.10;70.40
75931;DHT22;64609;47.052;15.462;2023-09-07T01:50:03;20.10;70.40
75931;DHT22;64609;47.052;15.462;2023-09-07T01:52:29;20.10;70.40
75931;DHT22;64609;47.052;15.462;2023-09-07T01:54:55;20.00;70.40
75931;DHT22;64609;47.052;15.462;2023-09-07T01:57:21;20.00;70.30
75931;DHT22;64609;47.052;15.462;2023-09-07T01:59:47;19.90;70.40
75931;DHT22;64609;47.052;15.462;2023-09-07T02:02:14;20.00;70.50
75931;DHT22;64609;47.052;15.462;2023-09-07T02:04:39;19.90;70.40
75931;DHT22;64609;47.052;15.462;2023-09-07T02:07:06;19.90;70.50
75931;DHT22;64609;47.052;15.462;2023-09-07T02:09:31;19.90;70.50
75931;DHT22;64609;47.052;15.462;2023-09-07T02:11:57;19.90;70.70
75931;DHT22;64609;47.052;15.462;2023-09-07T02:14:23;19.90;70.80
75931;DHT22;64609;47.052;15.462;2023-09-07T02:16:49;19.90;70.80
75931;DHT22;64609;47.052;15.462;2023-09-07T02:19:14;19.90;70.70
75931;DHT22;64609;47.052;15.462;2023-09-07T02:21:40;19.80;70.80
75931;DHT22;64609;47.052;15.462;2023-09-07T02:24:06;19.80;70.80
75931;DHT22;64609;47.052;15.462;2023-09-07T02:26:31;19.80;70.80
75931;DHT22;64609;47.052;15.462;2023-09-07T02:28:57;19.80;71.00
75931;DHT22;64609;47.052;15.462;2023-09-07T02:31:23;19.70;71.00
75931;DHT22;64609;47.052;15.462;2023-09-07T02:33:49;19.70;71.20
75931;DHT22;64609;47.052;15.462;2023-09-07T02:36:14;19.70;71.20
75931;DHT22;64609;47.052;15.462;2023-09-07T02:38:40;19.70;71.30
75931;DHT22;64609;47.052;15.462;2023-09-07T02:41:05;19.70;71.20
75931;DHT22;64609;47.052;15.462;2023-09-07T02:43:31;19.70;71.20
75931;DHT22;64609;47.052;15.462;2023-09-07T02:45:57;19.70;71.20
75931;DHT22;64609;47.052;15.462;2023-09-07T02:48:22;19.70;71.10
75931;DHT22;64609;47.052;15.462;2023-09-07T02:50:48;19.70;71.00
75931;DHT22;64609;47.052;15.462;2023-09-07T02:53:16;19.60;71.00
75931;DHT22;64609;47.052;15.462;2023-09-07T02:55:41;19.60;71.20
75931;DHT22;64609;47.052;15.462;2023-09-07T02:58:07;19.60;71.10
75931;DHT22;64609;47.052;15.462;2023-09-07T03:00:33;19.60;71.10
75931;DHT22;64609;47.052;15.462;2023-09-07T03:03:00;19.60;71.10
75931;DHT22;64609;47.052;15.462;2023-09-07T03:05:27;19.60;71.20
75931;DHT22;64609;47.052;15.462;2023-09-07T03:07:53;19.60;71.30
75931;DHT22;64609;47.052;15.462;2023-09-07T03:10:19;19.60;71.50
75931;DHT22;64609;47.052;15.462;2023-09-07T03:12:45;19.60;71.40
75931;DHT22;64609;47.052;15.462;2023-09-07T03:15:11;19.60;71.50
75931;DHT22;64609;47.052;15.462;2023-09-07T03:17:37;19.50;71.50
75931;DHT22;64609;47.052;15.462;2023-09-07T03:20:03;19.50;71.50
75931;DHT22;64609;47.052;15.462;2023-09-07T03:22:44;19.50;71.40
75931;DHT22;64609;47.052;15.462;2023-09-07T03:25:11;19.60;71.30
75931;DHT22;64609;47.052;15.462;2023-09-07T03:27:37;19.60;71.40
75931;DHT22;64609;47.052;15.462;2023-09-07T03:30:05;19.50;71.20
75931;DHT22;64609;47.052;15.462;2023-09-07T03:32:32;19.50;71.30
75931;DHT22;64609;47.052;15.462;2023-09-07T03:34:59;19.50;71.30
75931;DHT22;64609;47.052;15.462;2023-09-07T03:37:29;19.50;71.50
75931;DHT22;64609;47.052;15.462;2023-09-07T03:39:57;19.50;71.60
75931;DHT22;64609;47.052;15.462;2023-09-07T03:42:23;19.50;71.50
75931;DHT22;64609;47.052;15.462;2023-09-07T03:44:49;19.50;71.50
75931;DHT22;64609;47.052;15.462;2023-09-07T03:47:15;19.40;71.50
75931;DHT22;64609;47.052;15.462;2023-09-07T03:49:41;19.40;71.50
75931;DHT22;64609;47.052;15.462;2023-09-07T03:52:09;19.40;71.50
75931;DHT22;64609;47.052;15.462;2023-09-07T03:54:35;19.40;72.40
75931;DHT22;64609;47.052;15.462;2023-09-07T03:57:00;19.40;71.50
75931;DHT22;64609;47.052;15.462;2023-09-07T03:59:27;19.40;71.40
75931;DHT22;64609;47.052;15.462;2023-09-07T04:01:53;19.30;71.50
75931;DHT22;64609;47.052;15.462;2023-09-07T04:04:20;19.30;71.70
75931;DHT22;64609;47.052;15.462;2023-09-07T04:06:48;19.30;71.70
75931;DHT22;64609;47.052;15.462;2023-09-07T04:09:14;19.30;71.70
75931;DHT22;64609;47.052;15.462;2023-09-07T04:11:40;19.30;72.60
75931;DHT22;64609;47.052;15.462;2023-09-07T04:14:05;19.30;71.70
75931;DHT22;64609;47.052;15.462;2023-09-07T04:16:31;19.30;71.80
75931;DHT22;64609;47.052;15.462;2023-09-07T04:18:57;19.30;71.70
75931;DHT22;64609;47.052;15.462;2023-09-07T04:21:22;19.30;71.70
75931;DHT22;64609;47.052;15.462;2023-09-07T04:23:48;19.30;71.70
75931;DHT22;64609;47.052;15.462;2023-09-07T04:26:14;19.30;71.80
75931;DHT22;64609;47.052;15.462;2023-09-07T04:28:39;19.30;71.80
75931;DHT22;64609;47.052;15.462;2023-09-07T04:31:05;19.30;71.90
75931;DHT22;64609;47.052;15.462;2023-09-07T04:33:32;19.20;71.90
75931;DHT22;64609;47.052;15.462;2023-09-07T04:36:08;19.20;71.80
75931;DHT22;64609;47.052;15.462;2023-09-07T04:38:34;19.20;71.80
75931;DHT22;64609;47.052;15.462;2023-09-07T04:41:10;19.20;71.90
75931;DHT22;64609;47.052;15.462;2023-09-07T04:43:37;19.20;71.80
75931;DHT22;64609;47.052;15.462;2023-09-07T04:46:03;19.10;71.90
75931;DHT22;64609;47.052;15.462;2023-09-07T04:48:29;19.10;71.90
75931;DHT22;64609;47.052;15.462;2023-09-07T04:51:12;19.10;72.00
75931;DHT22;64609;47.052;15.462;2023-09-07T04:53:39;19.10;72.00
75931;DHT22;64609;47.052;15.462;2023-09-07T04:56:06;19.10;71.90
75931;DHT22;64609;47.052;15.462;2023-09-07T04:58:32;19.10;72.00
75931;DHT22;64609;47.052;15.462;2023-09-07T05:01:05;19.10;72.00
75931;DHT22;64609;47.052;15.462;2023-09-07T05:03:31;19.10;72.20
75931;DHT22;64609;47.052;15.462;2023-09-07T05:05:57;19.20;72.40
75931;DHT22;64609;47.052;15.462;2023-09-07T05:08:23;19.20;72.40
75931;DHT22;64609;47.052;15.462;2023-09-07T05:10:55;19.20;72.40
75931;DHT22;64609;47.052;15.462;2023-09-07T05:13:22;19.20;72.50
75931;DHT22;64609;47.052;15.462;2023-09-07T05:15:48;19.30;72.60
75931;DHT22;64609;47.052;15.462;2023-09-07T05:18:14;19.30;72.50
75931;DHT22;64609;47.052;15.462;2023-09-07T05:20:40;19.30;72.40
75931;DHT22;64609;47.052;15.462;2023-09-07T05:23:05;19.40;72.30
75931;DHT22;64609;47.052;15.462;2023-09-07T05:25:32;19.40;72.30
75931;DHT22;64609;47.052;15.462;2023-09-07T05:27:57;19.50;72.40
75931;DHT22;64609;47.052;15.462;2023-09-07T05:30:23;19.50;72.10
75931;DHT22;64609;47.052;15.462;2023-09-07T05:32:48;19.60;72.00
75931;DHT22;64609;47.052;15.462;2023-09-07T05:35:14;19.60;71.90
75931;DHT22;64609;47.052;15.462;2023-09-07T05:37:42;19.60;72.10
75931;DHT22;64609;47.052;15.462;2023-09-07T05:40:08;19.70;72.10
75931;DHT22;64609;47.052;15.462;2023-09-07T05:42:34;19.70;71.80
75931;DHT22;64609;47.052;15.462;2023-09-07T05:44:59;19.80;71.70
75931;DHT22;64609;47.052;15.462;2023-09-07T05:47:25;19.90;71.60
75931;DHT22;64609;47.052;15.462;2023-09-07T05:49:51;19.90;71.40
75931;DHT22;64609;47.052;15.462;2023-09-07T05:52:17;19.90;71.40
75931;DHT22;64609;47.052;15.462;2023-09-07T05:54:43;20.00;71.30
75931;DHT22;64609;47.052;15.462;2023-09-07T05:57:08;20.10;71.10
75931;DHT22;64609;47.052;15.462;2023-09-07T05:59:34;20.10;71.20
75931;DHT22;64609;47.052;15.462;2023-09-07T06:02:00;20.20;71.10
75931;DHT22;64609;47.052;15.462;2023-09-07T06:04:26;20.30;71.10
75931;DHT22;64609;47.052;15.462;2023-09-07T06:06:51;20.40;71.00
75931;DHT22;64609;47.052;15.462;2023-09-07T06:09:17;20.40;70.70
75931;DHT22;64609;47.052;15.462;2023-09-07T06:11:43;20.50;70.50
75931;DHT22;64609;47.052;15.462;2023-09-07T06:14:08;20.60;70.40
75931;DHT22;64609;47.052;15.462;2023-09-07T06:16:34;20.70;70.20
75931;DHT22;64609;47.052;15.462;2023-09-07T06:19:00;20.70;70.00
75931;DHT22;64609;47.052;15.462;2023-09-07T06:21:26;20.80;69.60
75931;DHT22;64609;47.052;15.462;2023-09-07T06:23:51;20.90;69.50
75931;DHT22;64609;47.052;15.462;2023-09-07T06:26:17;21.00;69.50
75931;DHT22;64609;47.052;15.462;2023-09-07T06:28:43;21.00;69.30
75931;DHT22;64609;47.052;15.462;2023-09-07T06:31:09;21.10;69.10
75931;DHT22;64609;47.052;15.462;2023-09-07T06:33:34;21.20;68.80
75931;DHT22;64609;47.052;15.462;2023-09-07T06:36:00;21.30;68.70
75931;DHT22;64609;47.052;15.462;2023-09-07T06:38:29;21.30;68.20
75931;DHT22;64609;47.052;15.462;2023-09-07T06:40:54;21.40;67.90
75931;DHT22;64609;47.052;15.462;2023-09-07T06:43:20;21.50;67.90
75931;DHT22;64609;47.052;15.462;2023-09-07T06:45:46;21.60;67.70
75931;DHT22;64609;47.052;15.462;2023-09-07T06:48:11;21.70;67.60
75931;DHT22;64609;47.052;15.462;2023-09-07T06:50:38;21.70;67.40
75931;DHT22;64609;47.052;15.462;2023-09-07T06:53:03;21.80;67.10
75931;DHT22;64609;47.052;15.462;2023-09-07T06:55:29;21.90;66.90
75931;DHT22;64609;47.052;15.462;2023-09-07T06:57:54;22.00;66.40
75931;DHT22;64609;47.052;15.462;2023-09-07T07:00:21;22.10;66.40
75931;DHT22;64609;47.052;15.462;2023-09-07T07:02:47;22.20;66.30
75931;DHT22;64609;47.052;15.462;2023-09-07T07:05:12;22.30;66.50
75931;DHT22;64609;47.052;15.462;2023-09-07T07:07:38;22.30;66.20
75931;DHT22;64609;47.052;15.462;2023-09-07T07:10:05;22.50;65.90
75931;DHT22;64609;47.052;15.462;2023-09-07T07:12:31;22.50;65.60
75931;DHT22;64609;47.052;15.462;2023-09-07T07:15:00;22.60;65.30
75931;DHT22;64609;47.052;15.462;2023-09-07T07:17:26;22.80;65.10
75931;DHT22;64609;47.052;15.462;2023-09-07T07:19:52;23.00;64.70
75931;DHT22;64609;47.052;15.462;2023-09-07T07:22:17;23.10;64.40
75931;DHT22;64609;47.052;15.462;2023-09-07T07:24:43;23.30;64.10
75931;DHT22;64609;47.052;15.462;2023-09-07T07:27:09;23.30;63.50
75931;DHT22;64609;47.052;15.462;2023-09-07T07:29:36;23.40;63.20
75931;DHT22;64609;47.052;15.462;2023-09-07T07:32:03;23.40;62.80
75931;DHT22;64609;47.052;15.462;2023-09-07T07:34:29;23.50;62.50
75931;DHT22;64609;47.052;15.462;2023-09-07T07:36:55;23.60;62.40
75931;DHT22;64609;47.052;15.462;2023-09-07T07:39:20;23.80;61.80
75931;DHT22;64609;47.052;15.462;2023-09-07T07:41:46;23.90;61.40
75931;DHT22;64609;47.052;15.462;2023-09-07T07:44:11;23.90;61.20
75931;DHT22;64609;47.052;15.462;2023-09-07T07:46:37;24.10;61.20
75931;DHT22;64609;47.052;15.462;2023-09-07T07:49:03;24.20;60.60
75931;DHT22;64609;47.052;15.462;2023-09-07T07:51:29;24.30;60.60
75931;DHT22;64609;47.052;15.462;2023-09-07T07:53:55;24.30;60.20
75931;DHT22;64609;47.052;15.462;2023-09-07T07:56:23;24.40;59.80
75931;DHT22;64609;47.052;15.462;2023-09-07T07:58:49;24.50;59.40
75931;DHT22;64609;47.052;15.462;2023-09-07T08:01:19;24.60;59.30
75931;DHT22;64609;47.052;15.462;2023-09-07T08:03:45;24.70;59.20
75931;DHT22;64609;47.052;15.462;2023-09-07T08:06:11;24.80;58.80
75931;DHT22;64609;47.052;15.462;2023-09-07T08:08:38;24.90;59.20
75931;DHT22;64609;47.052;15.462;2023-09-07T08:11:04;25.00;58.70
75931;DHT22;64609;47.052;15.462;2023-09-07T08:13:34;25.20;58.30
75931;DHT22;64609;47.052;15.462;2023-09-07T08:16:04;25.30;57.40
75931;DHT22;64609;47.052;15.462;2023-09-07T08:18:32;25.40;57.30
75931;DHT22;64609;47.052;15.462;2023-09-07T08:20:58;25.60;57.60
75931;DHT22;64609;47.052;15.462;2023-09-07T08:23:23;25.70;57.10
75931;DHT22;64609;47.052;15.462;2023-09-07T08:25:51;25.80;57.20
75931;DHT22;64609;47.052;15.462;2023-09-07T08:28:17;26.00;55.50
75931;DHT22;64609;47.052;15.462;2023-09-07T08:30:44;26.00;56.20
75931;DHT22;64609;47.052;15.462;2023-09-07T08:33:10;26.20;55.40
75931;DHT22;64609;47.052;15.462;2023-09-07T08:35:35;26.10;55.30
75931;DHT22;64609;47.052;15.462;2023-09-07T08:38:03;26.20;55.50
75931;DHT22;64609;47.052;15.462;2023-09-07T08:40:33;26.40;54.90
75931;DHT22;64609;47.052;15.462;2023-09-07T08:43:03;26.60;55.00
75931;DHT22;64609;47.052;15.462;2023-09-07T08:45:30;26.70;55.30
75931;DHT22;64609;47.052;15.462;2023-09-07T08:47:59;26.90;54.80
75931;DHT22;64609;47.052;15.462;2023-09-07T08:50:25;27.00;54.50
75931;DHT22;64609;47.052;15.462;2023-09-07T08:52:52;27.10;54.10
75931;DHT22;64609;47.052;15.462;2023-09-07T08:55:19;27.30;54.00
75931;DHT22;64609;47.052;15.462;2023-09-07T08:57:45;27.40;53.50
75931;DHT22;64609;47.052;15.462;2023-09-07T09:00:11;27.60;53.10
75931;DHT22;64609;47.052;15.462;2023-09-07T09:02:42;27.70;52.50
75931;DHT22;64609;47.052;15.462;2023-09-07T09:05:12;27.70;52.00
75931;DHT22;64609;47.052;15.462;2023-09-07T09:07:39;27.60;51.00
75931;DHT22;64609;47.052;15.462;2023-09-07T09:10:08;27.70;51.60
75931;DHT22;64609;47.052;15.462;2023-09-07T09:12:34;27.80;50.90
75931;DHT22;64609;47.052;15.462;2023-09-07T09:15:01;27.90;51.00
75931;DHT22;64609;47.052;15.462;2023-09-07T09:17:29;28.00;51.10
75931;DHT22;64609;47.052;15.462;2023-09-07T09:19:54;28.00;50.10
75931;DHT22;64609;47.052;15.462;2023-09-07T09:22:20;28.10;50.90
75931;DHT22;64609;47.052;15.462;2023-09-07T09:24:49;28.30;50.30
75931;DHT22;64609;47.052;15.462;2023-09-07T09:27:15;28.50;49.60
75931;DHT22;64609;47.052;15.462;2023-09-07T09:29:40;28.60;49.40
75931;DHT22;64609;47.052;15.462;2023-09-07T09:32:07;28.70;49.20
75931;DHT22;64609;47.052;15.462;2023-09-07T09:34:34;28.90;47.90
75931;DHT22;64609;47.052;15.462;2023-09-07T09:37:01;28.90;48.20
75931;DHT22;64609;47.052;15.462;2023-09-07T09:39:29;29.00;48.30
75931;DHT22;64609;47.052;15.462;2023-09-07T09:41:55;29.10;48.50
75931;DHT22;64609;47.052;15.462;2023-09-07T09:44:23;29.20;47.90
75931;DHT22;64609;47.052;15.462;2023-09-07T09:46:55;29.20;45.70
75931;DHT22;64609;47.052;15.462;2023-09-07T09:49:21;29.20;47.30
75931;DHT22;64609;47.052;15.462;2023-09-07T09:51:50;29.30;47.00
75931;DHT22;64609;47.052;15.462;2023-09-07T09:54:17;29.40;46.90
75931;DHT22;64609;47.052;15.462;2023-09-07T09:56:44;29.50;46.50
75931;DHT22;64609;47.052;15.462;2023-09-07T09:59:13;29.70;46.60
75931;DHT22;64609;47.052;15.462;2023-09-07T10:01:44;29.90;45.60
75931;DHT22;64609;47.052;15.462;2023-09-07T10:04:14;30.00;44.20
75931;DHT22;64609;47.052;15.462;2023-09-07T10:06:53;30.00;43.40
75931;DHT22;64609;47.052;15.462;2023-09-07T10:09:18;30.00;43.80
75931;DHT22;64609;47.052;15.462;2023-09-07T10:11:52;30.10;44.80
75931;DHT22;64609;47.052;15.462;2023-09-07T10:14:18;30.20;44.60
75931;DHT22;64609;47.052;15.462;2023-09-07T10:16:49;30.40;43.90
75931;DHT22;64609;47.052;15.462;2023-09-07T10:19:16;30.50;42.50
75931;DHT22;64609;47.052;15.462;2023-09-07T10:21:42;30.70;42.10
75931;DHT22;64609;47.052;15.462;2023-09-07T10:24:08;30.80;41.70
75931;DHT22;64609;47.052;15.462;2023-09-07T10:26:33;30.90;41.00
75931;DHT22;64609;47.052;15.462;2023-09-07T10:29:01;31.00;41.20
75931;DHT22;64609;47.052;15.462;2023-09-07T10:31:30;31.20;41.10
75931;DHT22;64609;47.052;15.462;2023-09-07T10:33:56;31.30;40.00
75931;DHT22;64609;47.052;15.462;2023-09-07T10:38:47;31.10;40.70
75931;DHT22;64609;47.052;15.462;2023-09-07T10:41:13;30.90;40.20
75931;DHT22;64609;47.052;15.462;2023-09-07T10:43:48;30.70;40.10
75931;DHT22;64609;47.052;15.462;2023-09-07T10:46:14;30.60;39.90
75931;DHT22;64609;47.052;15.462;2023-09-07T10:48:40;30.40;40.80
75931;DHT22;64609;47.052;15.462;2023-09-07T10:51:06;30.40;40.40
75931;DHT22;64609;47.052;15.462;2023-09-07T10:53:32;30.30;39.80
75931;DHT22;64609;47.052;15.462;2023-09-07T10:56:02;30.10;40.60
75931;DHT22;64609;47.052;15.462;2023-09-07T10:58:29;30.10;41.40
75931;DHT22;64609;47.052;15.462;2023-09-07T11:00:55;30.10;41.50
75931;DHT22;64609;47.052;15.462;2023-09-07T11:03:22;30.10;41.60
75931;DHT22;64609;47.052;15.462;2023-09-07T11:05:48;30.20;40.70
75931;DHT22;64609;47.052;15.462;2023-09-07T11:08:14;30.10;40.60
75931;DHT22;64609;47.052;15.462;2023-09-07T11:10:40;30.00;39.90
75931;DHT22;64609;47.052;15.462;2023-09-07T11:13:06;29.90;40.00
75931;DHT22;64609;47.052;15.462;2023-09-07T11:15:32;29.80;40.80
75931;DHT22;64609;47.052;15.462;2023-09-07T11:18:05;29.90;40.60
75931;DHT22;64609;47.052;15.462;2023-09-07T11:20:33;29.80;40.70
75931;DHT22;64609;47.052;15.462;2023-09-07T11:22:59;29.70;40.60
75931;DHT22;64609;47.052;15.462;2023-09-07T11:25:25;29.70;41.30
75931;DHT22;64609;47.052;15.462;2023-09-07T11:27:51;29.60;41.20
75931;DHT22;64609;47.052;15.462;2023-09-07T11:30:20;29.60;41.20
75931;DHT22;64609;47.052;15.462;2023-09-07T11:32:46;29.50;41.00
75931;DHT22;64609;47.052;15.462;2023-09-07T11:35:12;29.50;41.30
75931;DHT22;64609;47.052;15.462;2023-09-07T11:37:37;29.70;41.20
75931;DHT22;64609;47.052;15.462;2023-09-07T11:40:04;29.60;40.20
75931;DHT22;64609;47.052;15.462;2023-09-07T11:42:36;29.50;41.50
75931;DHT22;64609;47.052;15.462;2023-09-07T11:45:02;29.30;41.60
75931;DHT22;64609;47.052;15.462;2023-09-07T11:47:28;29.40;42.10
75931;DHT22;64609;47.052;15.462;2023-09-07T11:49:53;29.50;42.20
75931;DHT22;64609;47.052;15.462;2023-09-07T11:52:19;29.60;41.90
75931;DHT22;64609;47.052;15.462;2023-09-07T11:54:45;29.60;42.00
75931;DHT22;64609;47.052;15.462;2023-09-07T11:57:10;29.80;42.10
75931;DHT22;64609;47.052;15.462;2023-09-07T11:59:36;29.90;41.40
75931;DHT22;64609;47.052;15.462;2023-09-07T12:02:02;29.80;41.30
75931;DHT22;64609;47.052;15.462;2023-09-07T12:04:27;29.80;41.50
75931;DHT22;64609;47.052;15.462;2023-09-07T12:06:53;29.80;40.80
75931;DHT22;64609;47.052;15.462;2023-09-07T12:09:18;29.80;41.10
75931;DHT22;64609;47.052;15.462;2023-09-07T12:11:44;29.80;41.20
75931;DHT22;64609;47.052;15.462;2023-09-07T12:14:10;29.90;41.30
75931;DHT22;64609;47.052;15.462;2023-09-07T12:16:35;30.00;41.60
75931;DHT22;64609;47.052;15.462;2023-09-07T12:19:01;30.00;41.70
75931;DHT22;64609;47.052;15.462;2023-09-07T12:21:27;30.00;41.00
75931;DHT22;64609;47.052;15.462;2023-09-07T12:23:52;30.00;41.20
75931;DHT22;64609;47.052;15.462;2023-09-07T12:26:18;30.00;41.20
75931;DHT22;64609;47.052;15.462;2023-09-07T12:28:46;30.00;42.30
75931;DHT22;64609;47.052;15.462;2023-09-07T12:31:12;29.90;41.10
75931;DHT22;64609;47.052;15.462;2023-09-07T12:33:38;29.90;41.20
75931;DHT22;64609;47.052;15.462;2023-09-07T12:36:04;29.70;41.10
75931;DHT22;64609;47.052;15.462;2023-09-07T12:38:34;29.60;41.60
75931;DHT22;64609;47.052;15.462;2023-09-07T12:41:00;29.70;42.20
75931;DHT22;64609;47.052;15.462;2023-09-07T12:43:25;29.80;42.90
75931;DHT22;64609;47.052;15.462;2023-09-07T12:45:51;29.80;41.70
75931;DHT22;64609;47.052;15.462;2023-09-07T12:48:17;29.80;41.40
75931;DHT22;64609;47.052;15.462;2023-09-07T12:50:42;29.80;41.90
75931;DHT22;64609;47.052;15.462;2023-09-07T12:53:11;29.80;41.70
75931;DHT22;64609;47.052;15.462;2023-09-07T12:55:36;29.80;41.70
75931;DHT22;64609;47.052;15.462;2023-09-07T12:58:02;29.80;40.90
75931;DHT22;64609;47.052;15.462;2023-09-07T13:00:28;29.80;40.90
75931;DHT22;64609;47.052;15.462;2023-09-07T13:02:56;29.70;41.10
75931;DHT22;64609;47.052;15.462;2023-09-07T13:05:22;29.70;41.90
75931;DHT22;64609;47.052;15.462;2023-09-07T13:07:48;29.70;41.20
75931;DHT22;64609;47.052;15.462;2023-09-07T13:10:13;29.70;41.10
75931;DHT22;64609;47.052;15.462;2023-09-07T13:12:40;29.70;41.50
75931;DHT22;64609;47.052;15.462;2023-09-07T13:15:07;29.70;42.00
75931;DHT22;64609;47.052;15.462;2023-09-07T13:17:33;29.70;41.60
75931;DHT22;64609;47.052;15.462;2023-09-07T13:19:58;29.60;41.50
75931;DHT22;64609;47.052;15.462;2023-09-07T13:22:24;29.60;41.90
75931;DHT22;64609;47.052;15.462;2023-09-07T13:24:50;29.70;41.20
75931;DHT22;64609;47.052;15.462;2023-09-07T13:27:16;29.60;41.00
75931;DHT22;64609;47.052;15.462;2023-09-07T13:29:41;29.60;41.00
75931;DHT22;64609;47.052;15.462;2023-09-07T13:32:08;29.50;41.30
75931;DHT22;64609;47.052;15.462;2023-09-07T13:34:33;29.50;41.00
75931;DHT22;64609;47.052;15.462;2023-09-07T13:36:59;29.50;41.10
75931;DHT22;64609;47.052;15.462;2023-09-07T13:39:25;29.40;41.10
75931;DHT22;64609;47.052;15.462;2023-09-07T13:41:50;29.40;41.30
75931;DHT22;64609;47.052;15.462;2023-09-07T13:44:16;29.40;41.80
75931;DHT22;64609;47.052;15.462;2023-09-07T13:46:43;29.30;41.00
75931;DHT22;64609;47.052;15.462;2023-09-07T13:49:09;29.30;41.20
75931;DHT22;64609;47.052;15.462;2023-09-07T13:51:35;29.30;41.30
75931;DHT22;64609;47.052;15.462;2023-09-07T13:54:04;29.30;41.30
75931;DHT22;64609;47.052;15.462;2023-09-07T13:56:31;29.30;41.60
75931;DHT22;64609;47.052;15.462;2023-09-07T13:58:56;29.20;42.40
75931;DHT22;64609;47.052;15.462;2023-09-07T14:01:22;29.10;41.90
75931;DHT22;64609;47.052;15.462;2023-09-07T14:03:49;29.10;42.10
75931;DHT22;64609;47.052;15.462;2023-09-07T14:06:14;29.10;41.90
75931;DHT22;64609;47.052;15.462;2023-09-07T14:08:40;29.10;42.40
75931;DHT22;64609;47.052;15.462;2023-09-07T14:11:06;29.20;42.50
75931;DHT22;64609;47.052;15.462;2023-09-07T14:13:32;29.30;43.10
75931;DHT22;64609;47.052;15.462;2023-09-07T14:16:01;29.20;42.80
75931;DHT22;64609;47.052;15.462;2023-09-07T14:18:27;29.10;42.20
75931;DHT22;64609;47.052;15.462;2023-09-07T14:20:52;29.10;42.50
75931;DHT22;64609;47.052;15.462;2023-09-07T14:23:18;29.10;42.70
75931;DHT22;64609;47.052;15.462;2023-09-07T14:25:46;29.10;42.40
75931;DHT22;64609;47.052;15.462;2023-09-07T14:28:13;29.20;42.10
75931;DHT22;64609;47.052;15.462;2023-09-07T14:30:39;29.30;41.60
75931;DHT22;64609;47.052;15.462;2023-09-07T14:33:04;29.30;41.30
75931;DHT22;64609;47.052;15.462;2023-09-07T14:35:30;29.30;42.40
75931;DHT22;64609;47.052;15.462;2023-09-07T14:37:56;29.30;40.40
75931;DHT22;64609;47.052;15.462;2023-09-07T14:40:22;29.20;40.70
75931;DHT22;64609;47.052;15.462;2023-09-07T14:42:52;29.20;40.50
75931;DHT22;64609;47.052;15.462;2023-09-07T14:45:19;29.20;40.70
75931;DHT22;64609;47.052;15.462;2023-09-07T14:47:45;29.20;41.10
75931;DHT22;64609;47.052;15.462;2023-09-07T14:50:10;29.30;41.40
75931;DHT22;64609;47.052;15.462;2023-09-07T14:52:36;29.30;41.10
75931;DHT22;64609;47.052;15.462;2023-09-07T14:55:07;29.30;39.80
75931;DHT22;64609;47.052;15.462;2023-09-07T14:57:33;29.10;39.40
75931;DHT22;64609;47.052;15.462;2023-09-07T15:00:00;28.90;39.60
75931;DHT22;64609;47.052;15.462;2023-09-07T15:02:26;28.90;41.00
75931;DHT22;64609;47.052;15.462;2023-09-07T15:04:51;28.80;39.40
75931;DHT22;64609;47.052;15.462;2023-09-07T15:07:17;28.80;40.20
75931;DHT22;64609;47.052;15.462;2023-09-07T15:09:44;28.70;40.70
75931;DHT22;64609;47.052;15.462;2023-09-07T15:12:09;28.70;40.90